Time;durP1;ratioP1;P1;durP2;ratioP2;P2;SDS_P1;SDS_P2;PMS_P1;PMS_P2;Temp;Humidity;BMP_temperature;BMP_pressure;BME280_temperature;BME280_humidity;BME280_pressure;Samples;Min_cycle;Max_cycle;Signal;HPM_P1;HPM_P2
2021/12/30 00:03:04;;;;;;;39.80;15.90;;;;;;;1.06;100.00;100367.53;5588050;31;34654;-73
2021/12/30 00:06:10;;;;;;;44.70;16.02;;;;;;;1.11;100.00;100381.12;5588708;31;34644;-73
2021/12/30 00:09:19;;;;;;;42.22;16.20;;;;;;;1.11;100.00;100379.34;5588711;31;34611;-74
2021/12/30 00:12:23;;;;;;;41.47;16.13;;;;;;;1.12;100.00;100381.00;5588549;31;34850;-74
2021/12/30 00:15:26;;;;;;;43.13;16.55;;;;;;;1.26;100.00;100395.69;5588500;31;33905;-74
2021/12/30 00:18:29;;;;;;;41.15;16.00;;;;;;;0.92;100.00;100386.75;5587783;31;33982;-74
2021/12/30 00:21:31;;;;;;;39.45;16.12;;;;;;;0.82;100.00;100396.19;5588323;31;33962;-72
2021/12/30 00:24:34;;;;;;;42.90;16.55;;;;;;;0.79;100.00;100392.00;5588375;31;33927;-74
2021/12/30 00:27:37;;;;;;;47.58;16.27;;;;;;;0.82;100.00;100398.81;5588474;31;34576;-74
2021/12/30 00:30:42;;;;;;;37.28;15.18;;;;;;;0.83;100.00;100409.13;5588338;31;34503;-74
2021/12/30 00:33:46;;;;;;;38.50;14.93;;;;;;;0.86;100.00;100408.09;5588444;31;34103;-74
2021/12/30 00:36:49;;;;;;;36.88;15.18;;;;;;;0.98;100.00;100414.25;5587384;31;34432;-74
2021/12/30 00:39:51;;;;;;;41.33;16.55;;;;;;;1.06;100.00;100432.84;5588040;31;33969;-74
2021/12/30 00:42:55;;;;;;;49.42;17.20;;;;;;;0.89;100.00;100426.16;5587143;31;34195;-74
2021/12/30 00:45:57;;;;;;;45.40;16.87;;;;;;;0.83;100.00;100424.81;5588142;31;34626;-74
2021/12/30 00:49:00;;;;;;;42.08;16.37;;;;;;;0.87;100.00;100431.47;5588364;31;34318;-74
2021/12/30 00:52:03;;;;;;;38.35;15.65;;;;;;;1.04;100.00;100432.94;5590085;31;34621;-74
2021/12/30 00:55:07;;;;;;;43.13;16.52;;;;;;;0.99;100.00;100434.19;5590660;31;34300;-74
2021/12/30 00:58:11;;;;;;;42.28;16.65;;;;;;;1.01;100.00;100446.22;5590640;31;34784;-74
2021/12/30 01:01:14;;;;;;;46.78;17.23;;;;;;;1.08;100.00;100455.28;5590654;31;35147;-74
2021/12/30 01:04:20;;;;;;;39.95;15.32;;;;;;;1.19;100.00;100462.41;5589797;31;33953;-74
2021/12/30 01:07:23;;;;;;;45.28;16.48;;;;;;;0.87;100.00;100457.59;5591001;31;33877;-74
2021/12/30 01:10:26;;;;;;;45.90;16.02;;;;;;;1.06;100.00;100453.75;5589904;31;35227;-74
2021/12/30 01:13:38;;;;;;;44.22;15.40;;;;;;;0.92;100.00;100454.66;5589765;31;34551;-74
2021/12/30 01:16:44;;;;;;;44.42;16.52;;;;;;;0.81;100.00;100449.38;5590480;31;34647;-74
2021/12/30 01:19:50;;;;;;;49.40;16.27;;;;;;;0.79;100.00;100453.84;5590526;31;34623;-74
2021/12/30 01:22:53;;;;;;;44.03;16.15;;;;;;;0.81;100.00;100455.41;5590427;31;33993;-74
2021/12/30 01:25:56;;;;;;;44.50;15.57;;;;;;;0.92;100.00;100456.47;5590657;31;34057;-74
2021/12/30 01:28:59;;;;;;;39.80;14.25;;;;;;;0.87;100.00;100457.59;5590360;31;34688;-74
2021/12/30 01:32:02;;;;;;;52.17;15.27;;;;;;;0.78;100.00;100462.59;5589579;31;34220;-74
2021/12/30 01:35:08;;;;;;;42.90;14.75;;;;;;;0.71;100.00;100459.59;5590553;31;33909;-74
2021/12/30 01:38:15;;;;;;;43.50;14.82;;;;;;;0.73;100.00;100468.13;5590237;31;35372;-74
2021/12/30 01:41:18;;;;;;;50.42;16.80;;;;;;;0.69;100.00;100473.66;5590303;31;34342;-72
2021/12/30 01:44:22;;;;;;;43.25;15.00;;;;;;;0.78;100.00;100484.34;5589534;31;34146;-72
2021/12/30 01:47:25;;;;;;;58.58;17.17;;;;;;;0.77;100.00;100490.53;5590642;31;35243;-72
2021/12/30 01:50:28;;;;;;;47.15;15.90;;;;;;;0.71;100.00;100485.69;5590236;31;34616;-72
2021/12/30 01:53:31;;;;;;;49.38;16.12;;;;;;;0.75;100.00;100489.78;5590272;31;34120;-72
2021/12/30 01:56:35;;;;;;;54.42;16.08;;;;;;;0.75;100.00;100488.94;5590045;31;34571;-72
2021/12/30 01:59:37;;;;;;;41.92;15.10;;;;;;;0.84;100.00;100493.53;5590121;31;33934;-72
2021/12/30 02:02:40;;;;;;;40.63;16.05;;;;;;;0.88;100.00;100476.72;5589401;31;34607;-72
2021/12/30 02:05:44;;;;;;;47.40;16.08;;;;;;;0.85;100.00;100467.31;5589436;31;34061;-73
2021/12/30 02:08:47;;;;;;;43.60;14.82;;;;;;;0.69;100.00;100486.72;5589301;31;33830;-73
2021/12/30 02:11:51;;;;;;;55.67;16.73;;;;;;;0.64;100.00;100480.97;5590133;31;33918;-73
2021/12/30 02:14:53;;;;;;;47.10;16.02;;;;;;;0.73;100.00;100496.03;5590028;31;34479;-73
2021/12/30 02:17:58;;;;;;;44.40;15.10;;;;;;;0.74;100.00;100490.72;5589562;31;34667;-73
2021/12/30 02:21:02;;;;;;;51.17;15.30;;;;;;;0.78;100.00;100488.72;5589173;31;34490;-73
2021/12/30 02:24:06;;;;;;;47.50;15.63;;;;;;;0.86;100.00;100491.66;5589164;31;34566;-73
2021/12/30 02:27:08;;;;;;;46.72;17.70;;;;;;;0.94;100.00;100491.13;5589081;31;34580;-73
2021/12/30 02:30:11;;;;;;;46.10;15.35;;;;;;;0.80;100.00;100487.69;5589947;31;34651;-73
2021/12/30 02:33:14;;;;;;;47.20;15.65;;;;;;;0.87;100.00;100485.50;5588980;31;34052;-73
2021/12/30 02:36:23;;;;;;;47.15;15.25;;;;;;;0.75;100.00;100492.38;5590194;31;34310;-73
2021/12/30 02:39:26;;;;;;;47.35;14.90;;;;;;;0.83;100.00;100482.25;5589013;31;34085;-73
2021/12/30 02:42:28;;;;;;;52.83;15.75;;;;;;;0.65;100.00;100486.09;5589705;31;34642;-72
2021/12/30 02:45:32;;;;;;;50.40;15.57;;;;;;;0.57;100.00;100490.16;5589617;31;34807;-73
2021/12/30 02:48:41;;;;;;;51.22;16.60;;;;;;;0.72;100.00;100486.53;5590025;31;34550;-72
2021/12/30 02:51:44;;;;;;;45.75;14.93;;;;;;;0.64;100.00;100473.12;5590038;31;34612;-73
2021/12/30 02:54:46;;;;;;;53.83;15.15;;;;;;;0.68;100.00;100475.44;5589719;31;34016;-73
2021/12/30 02:57:49;;;;;;;45.28;16.35;;;;;;;0.77;100.00;100461.78;5589602;31;34383;-73
2021/12/30 03:01:09;;;;;;;37.90;13.13;;;;;;;0.82;100.00;100479.75;5589516;31;35269;-73
2021/12/30 03:04:12;;;;;;;45.30;15.43;;;;;;;0.70;100.00;100478.81;5590129;31;33968;-72
2021/12/30 03:07:18;;;;;;;38.97;13.38;;;;;;;0.78;100.00;100486.09;5589135;31;34322;-72
2021/12/30 03:10:24;;;;;;;48.33;14.70;;;;;;;0.59;100.00;100483.91;5589491;31;34686;-72
2021/12/30 03:13:31;;;;;;;43.65;14.27;;;;;;;0.54;100.00;100479.91;5588744;31;34659;-74
2021/12/30 03:16:37;;;;;;;41.17;15.05;;;;;;;0.52;100.00;100484.41;5588653;31;34761;-74
2021/12/30 03:19:40;;;;;;;45.70;14.82;;;;;;;0.54;100.00;100469.47;5589389;31;33972;-72
2021/12/30 03:22:44;;;;;;;45.85;14.32;;;;;;;0.56;100.00;100476.28;5589427;31;33947;-72
2021/12/30 03:25:47;;;;;;;41.03;14.15;;;;;;;0.59;100.00;100489.13;5589366;31;34621;-72
2021/12/30 03:28:50;;;;;;;42.75;15.00;;;;;;;0.77;100.00;100492.28;5589341;31;33649;-75
2021/12/30 03:31:53;;;;;;;46.92;15.30;;;;;;;0.66;100.00;100500.00;5589310;31;33902;-72
2021/12/30 03:34:56;;;;;;;40.70;13.55;;;;;;;0.78;100.00;100502.63;5588486;31;34703;-73
2021/12/30 03:38:00;;;;;;;43.95;15.38;;;;;;;0.71;100.00;100506.59;5589210;31;34081;-72
2021/12/30 03:41:05;;;;;;;48.13;15.80;;;;;;;0.58;100.00;100505.72;5588368;31;34630;-73
2021/12/30 03:44:08;;;;;;;54.67;14.50;;;;;;;0.61;100.00;100515.13;5588972;31;34066;-73
2021/12/30 03:47:15;;;;;;;46.42;14.48;;;;;;;0.61;100.00;100517.75;5588950;31;34263;-73
2021/12/30 03:50:26;;;;;;;47.35;15.23;;;;;;;0.51;100.00;100527.09;5588281;31;34639;-73
2021/12/30 03:53:29;;;;;;;51.35;14.93;;;;;;;0.53;100.00;100533.06;5588957;31;34597;-73
2021/12/30 03:56:32;;;;;;;59.22;15.80;;;;;;;0.44;100.00;100524.87;5588892;31;34615;-73
2021/12/30 03:59:35;;;;;;;49.53;15.18;;;;;;;0.42;100.00;100525.94;5588947;31;34031;-73
2021/12/30 04:02:38;;;;;;;47.75;15.20;;;;;;;0.52;100.00;100532.22;5588078;31;32737;-73
2021/12/30 04:05:41;;;;;;;53.72;16.02;;;;;;;0.56;100.00;100538.94;5588125;31;33892;-73
2021/12/30 04:08:44;;;;;;;49.47;16.08;;;;;;;0.58;100.00;100544.06;5588739;31;33903;-73
2021/12/30 04:11:48;;;;;;;50.75;15.77;;;;;;;0.45;100.00;100549.22;5588617;31;34039;-73
2021/12/30 04:14:50;;;;;;;57.28;16.10;;;;;;;0.37;100.00;100544.50;5588680;31;34167;-73
2021/12/30 04:17:53;;;;;;;50.00;14.30;;;;;;;0.38;100.00;100555.78;5587850;31;34103;-72
2021/12/30 04:20:56;;;;;;;50.12;14.90;;;;;;;0.38;100.00;100554.03;5587800;31;33544;-73
2021/12/30 04:23:59;;;;;;;49.45;14.60;;;;;;;0.34;100.00;100555.13;5588333;31;33976;-73
2021/12/30 04:27:02;;;;;;;47.78;14.35;;;;;;;0.27;100.00;100556.47;5589914;31;34617;-72
2021/12/30 04:30:08;;;;;;;44.40;14.00;;;;;;;0.40;100.00;100575.63;5590473;31;34499;-73
2021/12/30 04:33:11;;;;;;;56.45;15.55;;;;;;;0.38;100.00;100584.50;5590760;31;34381;-73
2021/12/30 04:36:14;;;;;;;58.70;16.02;;;;;;;0.39;100.00;100573.94;5590879;31;33985;-73
2021/12/30 04:39:17;;;;;;;69.78;17.05;;;;;;;0.27;100.00;100566.06;5590838;31;34075;-73
2021/12/30 04:42:20;;;;;;;53.10;15.18;;;;;;;0.24;100.00;100585.34;5590701;31;34359;-73
2021/12/30 04:45:25;;;;;;;51.53;14.45;;;;;;;0.21;100.00;100580.34;5590772;31;35292;-73
2021/12/30 04:48:28;;;;;;;56.90;15.57;;;;;;;0.26;100.00;100578.28;5589907;31;34825;-73
2021/12/30 04:51:31;;;;;;;50.08;13.23;;;;;;;0.24;100.00;100574.09;5590746;31;33929;-73
2021/12/30 04:54:34;;;;;;;54.75;14.68;;;;;;;0.24;100.00;100582.72;5590939;31;34282;-72
2021/12/30 04:57:37;;;;;;;39.97;14.07;;;;;;;0.08;100.00;100589.03;5590714;31;34026;-74
2021/12/30 05:00:41;;;;;;;44.47;13.65;;;;;;;0.14;100.00;100602.53;5590558;31;34641;-73
2021/12/30 05:03:43;;;;;;;43.85;13.60;;;;;;;0.05;100.00;100605.69;5590632;31;34044;-73
2021/12/30 05:06:46;;;;;;;36.25;12.23;;;;;;;0.06;100.00;100615.19;5590716;31;33548;-73
2021/12/30 05:09:49;;;;;;;45.22;14.25;;;;;;;0.15;100.00;100624.22;5589835;31;33978;-73
2021/12/30 05:12:52;;;;;;;36.95;12.55;;;;;;;0.29;100.00;100632.03;5589862;31;35145;-73
2021/12/30 05:15:54;;;;;;;33.47;11.65;;;;;;;0.32;100.00;100644.88;5590549;31;34706;-73
2021/12/30 05:18:58;;;;;;;37.88;12.30;;;;;;;0.44;100.00;100655.38;5590438;31;34304;-73
2021/12/30 05:22:00;;;;;;;37.90;11.57;;;;;;;0.32;100.00;100655.31;5590525;31;34029;-73
2021/12/30 05:25:04;;;;;;;31.42;10.88;;;;;;;0.25;100.00;100667.91;5590506;31;33977;-73
2021/12/30 05:28:07;;;;;;;39.67;11.65;;;;;;;0.24;100.00;100671.44;5590081;31;34053;-72
2021/12/30 05:31:10;;;;;;;35.40;12.13;;;;;;;0.40;100.00;100692.22;5589611;31;34857;-73
2021/12/30 05:34:12;;;;;;;31.35;11.30;;;;;;;0.42;100.00;100708.63;5589560;31;33990;-73
2021/12/30 05:37:15;;;;;;;34.63;11.98;;;;;;;0.22;100.00;100694.19;5589543;31;34709;-73
2021/12/30 05:40:20;;;;;;;37.42;12.73;;;;;;;0.29;100.00;100698.09;5590509;31;34493;-72
2021/12/30 05:43:23;;;;;;;32.95;11.55;;;;;;;0.55;100.00;100706.91;5590285;31;35185;-72
2021/12/30 05:46:27;;;;;;;29.85;10.90;;;;;;;0.44;100.00;100704.13;5589651;31;35159;-73
2021/12/30 05:49:30;;;;;;;40.00;11.20;;;;;;;0.35;100.00;100721.22;5589386;31;34823;-73
2021/12/30 05:52:33;;;;;;;37.28;12.73;;;;;;;0.52;100.00;100721.94;5589370;31;34675;-73
2021/12/30 05:55:36;;;;;;;35.78;11.90;;;;;;;0.46;100.00;100711.87;5589412;31;33930;-73
2021/12/30 05:58:39;;;;;;;37.03;11.48;;;;;;;0.47;100.00;100714.41;5589346;31;34610;-73
2021/12/30 06:01:42;;;;;;;35.60;11.70;;;;;;;0.49;100.00;100709.91;5590069;31;34695;-73
2021/12/30 06:04:45;;;;;;;38.92;12.20;;;;;;;0.48;100.00;100716.09;5590146;31;34034;-73
2021/12/30 06:07:48;;;;;;;33.78;11.82;;;;;;;0.48;100.00;100721.31;5589355;31;34696;-72
2021/12/30 06:10:51;;;;;;;37.55;12.23;;;;;;;0.69;100.00;100730.38;5589955;31;34304;-72
2021/12/30 06:13:53;;;;;;;32.33;10.63;;;;;;;0.69;100.00;100724.31;5590354;31;34655;-72
2021/12/30 06:16:56;;;;;;;28.83;10.82;;;;;;;0.72;100.00;100734.59;5590219;31;33913;-73
2021/12/30 06:19:59;;;;;;;34.53;11.50;;;;;;;0.72;100.00;100740.66;5589761;31;34166;-73
2021/12/30 06:23:02;;;;;;;35.00;12.80;;;;;;;0.66;100.00;100745.41;5589615;31;34594;-72
2021/12/30 06:26:05;;;;;;;43.72;12.77;;;;;;;0.72;100.00;100755.47;5589052;31;33861;-73
2021/12/30 06:29:08;;;;;;;49.10;13.38;;;;;;;0.71;100.00;100764.25;5589950;31;34152;-73
2021/12/30 06:32:11;;;;;;;37.60;11.90;;;;;;;0.74;100.00;100767.50;5589963;31;34041;-73
2021/12/30 06:35:14;;;;;;;36.42;11.77;;;;;;;0.75;100.00;100763.09;5588958;31;34558;-73
2021/12/30 06:38:16;;;;;;;49.95;12.75;;;;;;;0.80;100.00;100766.28;5589906;31;33982;-73
2021/12/30 06:41:19;;;;;;;37.22;11.25;;;;;;;0.78;100.00;100775.97;5589401;31;34427;-73
2021/12/30 06:44:22;;;;;;;40.08;12.63;;;;;;;0.87;100.00;100778.84;5589708;31;34560;-73
2021/12/30 06:47:25;;;;;;;38.97;12.63;;;;;;;0.79;100.00;100786.31;5589825;31;33934;-73
2021/12/30 06:50:31;;;;;;;44.17;13.05;;;;;;;0.88;100.00;100780.53;5589310;31;34557;-73
2021/12/30 06:53:34;;;;;;;46.33;13.23;;;;;;;0.62;100.00;100794.38;5588930;31;33901;-73
2021/12/30 06:56:37;;;;;;;45.70;13.77;;;;;;;0.56;100.00;100794.75;5589063;31;33923;-72
2021/12/30 06:59:40;;;;;;;46.90;13.82;;;;;;;0.69;100.00;100813.09;5589538;31;33947;-72
2021/12/30 07:02:44;;;;;;;43.15;13.15;;;;;;;0.75;100.00;100826.63;5589522;31;34042;-72
2021/12/30 07:05:47;;;;;;;41.70;13.43;;;;;;;0.87;100.00;100840.72;5588720;31;34168;-73
2021/12/30 07:08:49;;;;;;;46.80;13.80;;;;;;;0.87;100.00;100848.53;5589528;31;34262;-73
2021/12/30 07:11:54;;;;;;;40.12;13.52;;;;;;;0.85;100.00;100842.56;5589763;31;32696;-73
2021/12/30 07:14:57;;;;;;;44.40;13.60;;;;;;;0.92;100.00;100833.41;5589493;31;34385;-72
2021/12/30 07:18:00;;;;;;;43.40;13.60;;;;;;;0.87;100.00;100835.50;5589388;31;34378;-72
2021/12/30 07:21:02;;;;;;;48.40;14.23;;;;;;;0.62;100.00;100836.16;5589279;31;34104;-73
2021/12/30 07:24:06;;;;;;;54.75;14.85;;;;;;;0.63;100.00;100831.78;5589399;31;34587;-73
2021/12/30 07:27:08;;;;;;;55.78;15.43;;;;;;;0.68;100.00;100838.38;5588973;31;34194;-73
2021/12/30 07:30:11;;;;;;;46.67;14.85;;;;;;;0.81;100.00;100839.31;5589241;31;33902;-72
2021/12/30 07:33:14;;;;;;;40.65;14.20;;;;;;;0.96;100.00;100858.41;5589070;31;34560;-72
2021/12/30 07:36:17;;;;;;;53.03;14.23;;;;;;;0.91;100.00;100855.25;5589634;31;34529;-72
2021/12/30 07:39:20;;;;;;;50.67;14.73;;;;;;;0.78;100.00;100857.75;5588843;31;33973;-73
2021/12/30 07:42:23;;;;;;;51.20;15.40;;;;;;;0.99;100.00;100867.81;5589187;31;34723;-73
2021/12/30 07:45:26;;;;;;;50.03;16.70;;;;;;;1.09;100.00;100872.38;5588407;31;34329;-73
2021/12/30 07:48:29;;;;;;;65.85;18.48;;;;;;;0.79;100.00;100871.66;5589162;31;34050;-73
2021/12/30 07:51:32;;;;;;;59.72;17.37;;;;;;;0.75;100.00;100870.19;5588004;31;34803;-73
2021/12/30 07:54:35;;;;;;;61.85;16.30;;;;;;;0.72;100.00;100871.22;5588998;31;34293;-74
2021/12/30 07:57:38;;;;;;;63.70;16.73;;;;;;;0.94;100.00;100888.16;5588207;31;34026;-75
2021/12/30 08:00:40;;;;;;;56.25;15.32;;;;;;;0.84;100.00;100882.66;5587363;31;33866;-74
2021/12/30 08:03:43;;;;;;;60.17;16.37;;;;;;;0.75;100.00;100884.06;5588780;31;34409;-75
2021/12/30 08:06:46;;;;;;;70.18;17.30;;;;;;;0.78;100.00;100886.50;5589080;31;33968;-74
2021/12/30 08:09:49;;;;;;;81.10;17.40;;;;;;;0.80;100.00;100881.19;5588650;31;34033;-75
2021/12/30 08:12:54;;;;;;;67.43;18.05;;;;;;;0.94;100.00;100878.56;5588013;31;33908;-75
2021/12/30 08:15:57;;;;;;;73.97;17.27;;;;;;;0.88;100.00;100873.72;5587924;31;32777;-74
2021/12/30 08:18:59;;;;;;;66.22;18.02;;;;;;;0.83;100.00;100886.22;5588406;31;33999;-75
2021/12/30 08:22:03;;;;;;;74.07;18.50;;;;;;;0.87;100.00;100890.34;5588392;31;34084;-74
2021/12/30 08:25:08;;;;;;;65.45;17.55;;;;;;;0.90;100.00;100889.28;5588411;31;34721;-75
2021/12/30 08:28:11;;;;;;;59.97;16.48;;;;;;;0.91;100.00;100885.75;5588696;31;34619;-74
2021/12/30 08:31:14;;;;;;;57.17;16.40;;;;;;;1.06;100.00;100892.66;5587392;31;34036;-73
2021/12/30 08:34:17;;;;;;;61.55;17.48;;;;;;;1.07;100.00;100891.69;5574339;31;34118;-72
2021/12/30 08:37:20;;;;;;;53.75;16.10;;;;;;;1.20;100.00;100897.87;5588243;31;34436;-75
2021/12/30 08:40:23;;;;;;;49.05;14.20;;;;;;;1.45;100.00;100899.78;5587791;31;35306;-74
2021/12/30 08:43:26;;;;;;;47.83;13.85;;;;;;;1.21;100.00;100900.34;5587949;31;34692;-74
2021/12/30 08:46:29;;;;;;;52.97;15.38;;;;;;;1.10;100.00;100902.81;5587808;31;34022;-74
2021/12/30 08:49:32;;;;;;;45.67;14.45;;;;;;;1.11;100.00;100907.13;5587198;31;34700;-73
2021/12/30 08:52:35;;;;;;;44.55;14.40;;;;;;;1.25;100.00;100898.41;5587994;31;34233;-73
2021/12/30 08:55:38;;;;;;;48.03;14.52;;;;;;;1.49;100.00;100912.56;5587788;31;34687;-73
2021/12/30 08:58:41;;;;;;;43.72;13.50;;;;;;;1.41;100.00;100908.72;5586862;31;33998;-73
2021/12/30 09:01:43;;;;;;;37.03;13.20;;;;;;;1.27;100.00;100915.66;5587652;31;34096;-73
2021/12/30 09:04:47;;;;;;;49.72;14.13;;;;;;;1.30;100.00;100915.50;5587517;31;34454;-75
2021/12/30 09:07:50;;;;;;;46.47;13.38;;;;;;;1.41;100.00;100912.19;5587624;31;34124;-73
2021/12/30 09:10:53;;;;;;;49.55;15.18;;;;;;;1.46;100.00;100917.12;5587538;31;33914;-73
2021/12/30 09:13:56;;;;;;;47.25;15.07;;;;;;;1.42;100.00;100913.88;5590760;31;33930;-73
2021/12/30 09:16:58;;;;;;;42.25;14.00;;;;;;;1.60;100.00;100911.84;5590441;31;34131;-74
2021/12/30 09:20:01;;;;;;;49.08;15.38;;;;;;;1.68;100.00;100897.38;5590443;31;33868;-73
2021/12/30 09:23:06;;;;;;;45.15;14.18;;;;;;;1.82;100.00;100904.31;5590262;31;35539;-75
2021/12/30 09:26:09;;;;;;;42.55;15.10;;;;;;;1.91;100.00;100902.88;5589532;31;34068;-73
2021/12/30 09:29:12;;;;;;;42.55;15.18;;;;;;;1.71;100.00;100902.41;5590245;31;34685;-73
2021/12/30 09:32:14;;;;;;;46.05;14.52;;;;;;;1.81;100.00;100901.78;5590260;31;33968;-73
2021/12/30 09:35:18;;;;;;;45.00;14.32;;;;;;;1.63;100.00;100924.75;5590376;31;32468;-73
2021/12/30 09:38:21;;;;;;;43.58;13.90;;;;;;;1.84;100.00;100930.41;5589214;31;35536;-73
2021/12/30 09:41:24;;;;;;;41.30;14.40;;;;;;;2.04;100.00;100936.00;5590088;31;33882;-73
2021/12/30 09:44:27;;;;;;;45.45;14.77;;;;;;;1.79;100.00;100929.84;5590433;31;34013;-72
2021/12/30 09:47:30;;;;;;;46.80;13.88;;;;;;;1.97;100.00;100929.50;5588966;31;33794;-74
2021/12/30 09:50:38;;;;;;;45.45;15.20;;;;;;;2.14;100.00;100928.37;5590016;31;34059;-72
2021/12/30 09:53:40;;;;;;;41.28;14.25;;;;;;;1.89;100.00;100918.66;5589927;31;34822;-72
2021/12/30 09:56:44;;;;;;;46.85;15.60;;;;;;;2.13;100.00;100922.31;5589877;31;34381;-73
2021/12/30 09:59:47;;;;;;;49.10;15.75;;;;;;;1.86;100.00;100911.03;5589297;31;33945;-73
2021/12/30 10:02:50;;;;;;;47.13;14.60;;;;;;;1.91;100.00;100913.34;5589118;31;34006;-72
2021/12/30 10:06:03;;;;;;;38.95;14.10;;;;;;;2.00;100.00;100924.06;5589974;31;34579;-72
2021/12/30 10:09:12;;;;;;;48.72;15.52;;;;;;;2.07;100.00;100925.34;5589888;31;34745;-72
2021/12/30 10:12:39;;;;;;;44.53;14.68;;;;;;;2.19;100.00;100924.53;5590295;31;33004;-72
2021/12/30 10:15:44;;;;;;;49.67;13.98;;;;;;;2.25;100.00;100919.81;5589828;31;34096;-72
2021/12/30 10:19:00;;;;;;;47.30;13.88;;;;;;;2.26;100.00;100911.03;5590273;31;35285;-72
2021/12/30 10:22:11;;;;;;;44.50;13.82;;;;;;;2.19;100.00;100914.06;5589108;31;34539;-72
2021/12/30 10:25:33;;;;;;;43.33;13.65;;;;;;;2.31;100.00;100911.56;5588942;31;34616;-74
2021/12/30 10:28:39;;;;;;;41.53;13.48;;;;;;;2.29;100.00;100923.91;5584731;31;141169;-73
2021/12/30 10:31:43;;;;;;;41.72;13.88;;;;;;;2.47;100.00;100920.09;5589752;31;34615;-73
2021/12/30 10:35:05;;;;;;;49.85;14.27;;;;;;;2.41;100.00;100918.72;5588768;31;33918;-74
2021/12/30 10:38:10;;;;;;;40.55;13.60;;;;;;;2.19;100.00;100919.28;5589801;31;34634;-72
2021/12/30 10:41:13;;;;;;;40.75;13.30;;;;;;;2.38;100.00;100916.28;5589409;31;34521;-72
2021/12/30 10:44:18;;;;;;;38.03;12.55;;;;;;;2.63;100.00;100923.34;5589023;31;34360;-75
2021/12/30 10:47:32;;;;;;;39.45;13.38;;;;;;;2.27;100.00;100910.94;5589055;31;33870;-72
2021/12/30 10:50:35;;;;;;;44.03;14.45;;;;;;;2.27;100.00;100912.72;5589513;31;34721;-74
2021/12/30 10:53:39;;;;;;;37.30;12.68;;;;;;;2.38;100.00;100923.28;5588891;31;33392;-73
2021/12/30 10:56:46;;;;;;;43.15;12.70;;;;;;;2.16;100.00;100921.28;5589361;31;34297;-73
2021/12/30 10:59:50;;;;;;;34.83;12.07;;;;;;;2.18;100.00;100922.84;5589741;31;34054;-73
2021/12/30 11:02:53;;;;;;;41.75;13.60;;;;;;;2.37;100.00;100921.66;5589356;31;33973;-72
2021/12/30 11:06:13;;;;;;;40.30;13.38;;;;;;;2.21;100.00;100908.72;5589406;31;34000;-73
2021/12/30 11:09:21;;;;;;;46.72;14.45;;;;;;;2.34;100.00;100904.34;5589524;31;35000;-72
2021/12/30 11:12:30;;;;;;;42.60;14.87;;;;;;;2.63;100.00;100905.00;5589479;31;33949;-73
2021/12/30 11:15:33;;;;;;;40.80;13.93;;;;;;;2.64;100.00;100898.81;5589879;31;33853;-73
2021/12/30 11:18:41;;;;;;;39.50;14.63;;;;;;;2.61;100.00;100899.03;5589834;31;34710;-73
2021/12/30 11:21:47;;;;;;;43.17;15.23;;;;;;;2.56;100.00;100894.13;5589231;31;34419;-73
2021/12/30 11:24:54;;;;;;;47.92;15.75;;;;;;;2.47;100.00;100899.97;5589066;31;34646;-72
2021/12/30 11:27:58;;;;;;;50.65;16.60;;;;;;;2.25;100.00;100891.88;5588949;31;34102;-74
2021/12/30 11:31:01;;;;;;;51.20;16.37;;;;;;;2.25;100.00;100889.25;5589402;31;33952;-72
2021/12/30 11:34:04;;;;;;;53.35;16.15;;;;;;;2.41;100.00;100886.47;5588439;31;34200;-73
2021/12/30 11:37:08;;;;;;;50.47;16.98;;;;;;;2.52;100.00;100892.62;5587987;31;34590;-74
2021/12/30 11:40:15;;;;;;;45.90;16.35;;;;;;;2.60;100.00;100892.97;5589585;31;34847;-72
2021/12/30 11:43:17;;;;;;;54.05;16.45;;;;;;;2.43;100.00;100879.31;5588960;31;34106;-72
2021/12/30 11:46:40;;;;;;;51.97;16.67;;;;;;;2.34;100.00;100874.72;5588598;31;33980;-73
2021/12/30 11:50:03;;;;;;;55.88;16.15;;;;;;;2.37;100.00;100869.28;5589258;31;34611;-73
2021/12/30 11:53:24;;;;;;;53.97;17.42;;;;;;;2.26;100.00;100870.00;5588929;31;33990;-74
2021/12/30 11:56:27;;;;;;;56.90;18.62;;;;;;;2.43;100.00;100867.06;5589006;31;33850;-72
2021/12/30 11:59:39;;;;;;;55.22;19.23;;;;;;;2.59;100.00;100872.94;5588766;31;34103;-72
2021/12/30 12:02:41;;;;;;;58.47;18.25;;;;;;;2.46;100.00;100873.91;5588487;31;33960;-74
2021/12/30 12:05:44;;;;;;;57.60;19.05;;;;;;;2.58;100.00;100878.28;5588780;31;34598;-74
2021/12/30 12:08:47;;;;;;;58.55;19.40;;;;;;;2.66;100.00;100878.63;5587942;31;34327;-72
2021/12/30 12:11:53;;;;;;;53.78;18.25;;;;;;;2.75;100.00;100870.13;5588670;31;35317;-72
2021/12/30 12:15:02;;;;;;;56.45;17.60;;;;;;;2.43;100.00;100885.41;5588287;31;34038;-72
2021/12/30 12:18:13;;;;;;;46.70;15.93;;;;;;;2.34;100.00;100886.03;5588552;31;34162;-73
2021/12/30 12:21:16;;;;;;;52.13;16.62;;;;;;;2.43;100.00;100895.88;5588468;31;34011;-72
2021/12/30 12:24:22;;;;;;;46.37;16.27;;;;;;;2.46;100.00;100897.47;5588287;31;33877;-72
2021/12/30 12:27:32;;;;;;;43.40;15.90;;;;;;;2.53;100.00;100898.72;5588029;31;34096;-72
2021/12/30 12:30:37;;;;;;;45.25;15.40;;;;;;;2.48;100.00;100896.41;5588223;31;35016;-72
2021/12/30 12:33:42;;;;;;;41.90;14.95;;;;;;;2.66;100.00;100902.19;5588203;31;34662;-72
2021/12/30 12:36:45;;;;;;;40.33;14.77;;;;;;;2.74;100.00;100899.03;5574371;31;33958;-72
2021/12/30 12:39:55;;;;;;;39.53;14.35;;;;;;;2.84;100.00;100914.03;5588116;31;34027;-74
2021/12/30 12:43:07;;;;;;;40.67;14.55;;;;;;;2.96;100.00;100905.31;5587244;31;34092;-74
2021/12/30 12:46:10;;;;;;;39.13;14.50;;;;;;;2.68;100.00;100913.38;5588100;31;34256;-74
2021/12/30 12:49:15;;;;;;;48.55;15.32;;;;;;;2.84;100.00;100910.56;5590780;31;34021;-74
2021/12/30 12:52:18;;;;;;;38.67;13.90;;;;;;;2.69;100.00;100911.59;5590045;31;34649;-73
2021/12/30 12:55:22;;;;;;;41.03;13.43;;;;;;;2.54;100.00;100906.47;5590832;31;34402;-74
2021/12/30 12:58:30;;;;;;;42.75;13.65;;;;;;;2.56;100.00;100911.63;5590684;31;34743;-74
2021/12/30 13:01:34;;;;;;;40.83;13.95;;;;;;;2.59;100.00;100914.84;5590434;31;34348;-72
2021/12/30 13:04:37;;;;;;;39.92;14.05;;;;;;;2.65;100.00;100923.25;5590263;31;34039;-72
2021/12/30 13:07:42;;;;;;;37.58;13.60;;;;;;;2.76;100.00;100920.75;5590483;31;34042;-72
2021/12/30 13:10:44;;;;;;;41.78;14.20;;;;;;;2.90;100.00;100907.53;5589541;31;33988;-74
2021/12/30 13:13:47;;;;;;;42.13;14.10;;;;;;;2.81;100.00;100901.13;5589594;31;33978;-74
2021/12/30 13:16:54;;;;;;;43.17;14.38;;;;;;;2.71;100.00;100926.25;5589772;31;34059;-74
2021/12/30 13:19:57;;;;;;;42.40;14.70;;;;;;;2.77;100.00;100923.22;5589766;31;34621;-72
2021/12/30 13:22:59;;;;;;;43.95;14.90;;;;;;;2.80;100.00;100919.59;5590418;31;34063;-72
2021/12/30 13:26:09;;;;;;;39.78;14.43;;;;;;;2.79;100.00;100934.47;5589983;31;33822;-76
2021/12/30 13:29:12;;;;;;;44.60;15.68;;;;;;;2.84;100.00;100929.75;5589696;31;34484;-72
2021/12/30 13:32:14;;;;;;;50.25;15.65;;;;;;;2.76;100.00;100929.41;5590217;31;34910;-72
2021/12/30 13:35:25;;;;;;;43.83;14.68;;;;;;;2.91;100.00;100925.75;5590272;31;34474;-73
2021/12/30 13:38:28;;;;;;;44.35;15.43;;;;;;;2.98;100.00;100928.78;5589560;31;34578;-72
2021/12/30 13:41:30;;;;;;;48.03;16.20;;;;;;;2.89;100.00;100940.75;5590316;31;34450;-72
2021/12/30 13:44:39;;;;;;;43.67;16.10;;;;;;;2.93;100.00;100938.75;5590319;31;34730;-72
2021/12/30 13:47:42;;;;;;;42.45;15.68;;;;;;;3.02;100.00;100944.19;5589533;31;33971;-72
2021/12/30 13:50:48;;;;;;;45.83;14.68;;;;;;;3.10;100.00;100943.66;5590162;31;34384;-73
2021/12/30 13:53:54;;;;;;;42.42;15.82;;;;;;;3.18;100.00;100943.97;5590302;31;34137;-73
2021/12/30 13:56:57;;;;;;;45.45;15.65;;;;;;;3.22;100.00;100953.31;5590259;31;34024;-73
2021/12/30 14:00:00;;;;;;;51.08;17.17;;;;;;;3.14;100.00;100954.78;5589205;31;34654;-72